createdAt,value
2018-08-23T00:01:37.687Z,98105.41
2018-08-23T00:04:07.848Z,98107.95
2018-08-23T00:06:37.091Z,98103.69
2018-08-23T00:09:08.156Z,98104.70
2018-08-23T00:11:40.959Z,98108.10
2018-08-23T00:14:09.760Z,98102.05
2018-08-23T00:16:44.136Z,98109.45
2018-08-23T00:19:13.115Z,98104.73
2018-08-23T00:21:46.710Z,98104.25
2018-08-23T00:24:16.552Z,98107.53
2018-08-23T00:26:47.287Z,98107.62
2018-08-23T00:29:31.595Z,98102.38
2018-08-23T00:32:01.804Z,98099.03
2018-08-23T00:34:40.417Z,98100.41
2018-08-23T00:37:09.795Z,98103.74
2018-08-23T00:39:38.255Z,98096.01
2018-08-23T00:42:13.047Z,98099.59
2018-08-23T00:45:02.274Z,98100.79
2018-08-23T00:47:33.128Z,98101.37
2018-08-23T00:50:01.625Z,98096.36
2018-08-23T00:52:45.795Z,98099.69
2018-08-23T00:55:27.305Z,98102.90
2018-08-23T00:57:55.786Z,98102.53
2018-08-23T01:00:25.483Z,98107.31
2018-08-23T01:03:01.592Z,98098.63
2018-08-23T01:05:35.171Z,98100.45
2018-08-23T01:08:04.411Z,98092.22
2018-08-23T01:10:32.878Z,98099.64
2018-08-23T01:13:02.451Z,98092.17
2018-08-23T01:15:32.097Z,98098.17
2018-08-23T01:18:15.900Z,98098.05
2018-08-23T01:20:45.569Z,98095.42
2018-08-23T01:23:14.037Z,98089.78
2018-08-23T01:25:43.607Z,98088.23
2018-08-23T01:28:12.406Z,98090.42
2018-08-23T01:30:41.424Z,98087.11
2018-08-23T01:33:12.885Z,98089.66
2018-08-23T01:35:43.203Z,98094.70
2018-08-23T01:38:12.401Z,98095.28
2018-08-23T01:40:41.607Z,98101.16
2018-08-23T01:43:10.060Z,98091.73
2018-08-23T01:45:38.516Z,98092.02
2018-08-23T01:48:08.331Z,98090.49
2018-08-23T01:50:36.830Z,98090.87
2018-08-23T01:53:05.308Z,98093.57
2018-08-23T01:55:33.716Z,98093.69
2018-08-23T01:58:02.230Z,98091.12
2018-08-23T02:00:32.134Z,98088.45
2018-08-23T02:03:01.133Z,98086.66
2018-08-23T02:05:29.722Z,98084.72
2018-08-23T02:07:58.275Z,98085.69
2018-08-23T02:10:26.691Z,98083.55
2018-08-23T02:12:56.480Z,98089.16
2018-08-23T02:15:24.994Z,98086.73
2018-08-23T02:17:55.566Z,98088.53
2018-08-23T02:20:25.014Z,98087.89
2018-08-23T02:22:54.333Z,98090.52
2018-08-23T02:25:23.206Z,98088.95
2018-08-23T02:28:03.182Z,98092.88
2018-08-23T02:30:53.285Z,98084.69
2018-08-23T02:33:21.753Z,98084.24
2018-08-23T02:36:06.759Z,98086.51
2018-08-23T02:38:36.268Z,98091.83
2018-08-23T02:41:05.018Z,98086.06
2018-08-23T02:43:33.466Z,98084.97
2018-08-23T02:46:03.150Z,98086.97
2018-08-23T02:48:31.607Z,98080.17
2018-08-23T02:51:00.048Z,98089.63
2018-08-23T02:53:33.929Z,98081.61
2018-08-23T02:56:09.024Z,98086.08
2018-08-23T02:58:48.615Z,98079.90
2018-08-23T03:01:17.086Z,98085.83
2018-08-23T03:04:28.152Z,98088.10
2018-08-23T03:07:03.448Z,98082.56
2018-08-23T03:09:33.547Z,98085.63
2018-08-23T03:12:06.213Z,98084.88
2018-08-23T03:14:35.075Z,98088.58
2018-08-23T03:17:19.933Z,98086.61
2018-08-23T03:20:13.144Z,98081.64
2018-08-23T03:22:42.305Z,98080.19
2018-08-23T03:25:12.054Z,98081.34
2018-08-23T03:27:40.608Z,98084.91
2018-08-23T03:30:10.832Z,98087.06
2018-08-23T03:32:39.667Z,98082.83
2018-08-23T03:35:08.430Z,98080.40
2018-08-23T03:37:37.079Z,98087.61
2018-08-23T03:40:06.026Z,98079.47
2018-08-23T03:42:34.496Z,98088.62
2018-08-23T03:45:03.389Z,98092.44
2018-08-23T03:48:04.764Z,98090.81
2018-08-23T03:50:35.571Z,98093.24
2018-08-23T03:53:03.980Z,98087.87
2018-08-23T03:55:32.638Z,98097.57
2018-08-23T03:58:02.759Z,98096.75
2018-08-23T04:00:36.395Z,98095.55
2018-08-23T04:03:10.132Z,98097.55
2018-08-23T04:05:38.861Z,98094.72
2018-08-23T04:08:07.263Z,98102.09
2018-08-23T04:10:35.778Z,98100.11
2018-08-23T04:13:04.242Z,98100.30
2018-08-23T04:15:33.049Z,98100.08
2018-08-23T04:18:06.551Z,98098.91
2018-08-23T04:20:35.371Z,98098.83
2018-08-23T04:23:03.783Z,98105.21
2018-08-23T04:25:32.236Z,98104.62
2018-08-23T04:28:00.658Z,98109.45
2018-08-23T04:30:29.144Z,98103.06
2018-08-23T04:32:57.579Z,98104.25
2018-08-23T04:35:27.994Z,98109.93
2018-08-23T04:37:56.836Z,98111.47
2018-08-23T04:40:25.420Z,98114.38
2018-08-23T04:42:54.069Z,98110.06
2018-08-23T04:45:25.731Z,98110.09
2018-08-23T04:47:59.775Z,98106.80
2018-08-23T04:50:28.203Z,98108.38
2018-08-23T04:52:56.639Z,98105.84
2018-08-23T04:55:25.755Z,98105.66
2018-08-23T04:57:54.776Z,98109.16
2018-08-23T05:00:23.226Z,98110.97
2018-08-23T05:02:51.632Z,98108.78
2018-08-23T05:05:20.535Z,98106.58
2018-08-23T05:07:49.213Z,98110.80
2018-08-23T05:10:17.704Z,98104.56
2018-08-23T05:12:46.119Z,98109.58
2018-08-23T05:15:14.567Z,98112.44
2018-08-23T05:17:43.485Z,98106.86
2018-08-23T05:20:11.915Z,98109.74
2018-08-23T05:22:45.864Z,98107.83
2018-08-23T05:25:15.451Z,98107.44
2018-08-23T05:28:01.071Z,98107.74
2018-08-23T05:30:30.116Z,98109.59
2018-08-23T05:33:02.604Z,98115.42
2018-08-23T05:35:31.821Z,98112.13
2018-08-23T05:38:01.131Z,98116.45
2018-08-23T05:40:34.152Z,98117.91
2018-08-23T05:43:02.602Z,98117.94
2018-08-23T05:45:36.512Z,98117.09
2018-08-23T05:48:32.135Z,98119.14
2018-08-23T05:51:04.965Z,98118.10
2018-08-23T05:53:34.128Z,98113.56
2018-08-23T05:56:02.899Z,98111.59
2018-08-23T05:58:32.691Z,98113.51
2018-08-23T06:01:01.590Z,98118.13
2018-08-23T06:03:30.196Z,98122.61
2018-08-23T06:05:58.895Z,98117.66
2018-08-23T06:08:27.314Z,98121.14
2018-08-23T06:11:02.934Z,98118.63
2018-08-23T06:13:31.328Z,98123.97
2018-08-23T06:15:59.770Z,98127.28
2018-08-23T06:18:28.520Z,98115.82
2018-08-23T06:20:57.018Z,98110.66
2018-08-23T06:23:32.168Z,98106.81
2018-08-23T06:26:00.632Z,98107.82
2018-08-23T06:28:29.043Z,98114.84
2018-08-23T06:30:58.776Z,98104.52
2018-08-23T06:33:39.524Z,98105.06
2018-08-23T06:36:09.379Z,98104.25
2018-08-23T06:38:39.465Z,98101.89
2018-08-23T06:41:08.688Z,98104.41
2018-08-23T06:43:37.112Z,98108.59
2018-08-23T06:46:05.788Z,98102.74
2018-08-23T06:48:34.277Z,98104.84
2018-08-23T06:51:03.765Z,98102.70
2018-08-23T06:53:40.277Z,98104.84
2018-08-23T06:56:09.279Z,98104.27
2018-08-23T06:58:37.742Z,98104.83
2018-08-23T07:01:11.540Z,98107.12
2018-08-23T07:03:49.463Z,98099.92
2018-08-23T07:06:17.883Z,98098.48
2018-08-23T07:08:46.295Z,98100.23
2018-08-23T07:11:21.865Z,98096.55
2018-08-23T07:13:56.748Z,98101.55
2018-08-23T07:16:25.694Z,98101.94
2018-08-23T07:18:54.115Z,98097.44
2018-08-23T07:21:22.575Z,98103.47
2018-08-23T07:24:06.559Z,98097.62
2018-08-23T07:26:34.902Z,98100.55
2018-08-23T07:29:03.343Z,98100.17
2018-08-23T07:31:31.802Z,98101.70
2018-08-23T07:34:00.446Z,98094.27
2018-08-23T07:36:31.159Z,98092.12
2018-08-23T07:38:59.880Z,98095.16
2018-08-23T07:41:28.305Z,98086.75
2018-08-23T07:43:56.724Z,98089.56
2018-08-23T07:46:25.157Z,98086.54
2018-08-23T07:48:53.716Z,98097.28
2018-08-23T07:51:25.885Z,98095.87
2018-08-23T07:53:57.609Z,98105.67
2018-08-23T07:56:28.066Z,98108.68
2018-08-23T07:58:57.653Z,98117.92
2018-08-23T08:01:31.816Z,98117.00
2018-08-23T08:04:01.033Z,98121.42
2018-08-23T08:06:29.908Z,98123.63
2018-08-23T08:09:00.104Z,98128.55
2018-08-23T08:11:34.595Z,98132.24
2018-08-23T08:14:13.339Z,98129.56
2018-08-23T08:16:41.762Z,98133.48
2018-08-23T08:19:10.274Z,98134.78
2018-08-23T08:21:38.784Z,98134.30
2018-08-23T08:24:07.286Z,98136.77
2018-08-23T08:26:35.749Z,98134.69
2018-08-23T08:29:04.193Z,98136.56
2018-08-23T08:31:32.603Z,98125.79
2018-08-23T08:34:01.128Z,98133.19
2018-08-23T08:36:31.635Z,98135.10
2018-08-23T08:39:01.060Z,98135.23
2018-08-23T08:41:34.571Z,98139.95
2018-08-23T08:44:03.857Z,98131.44
2018-08-23T08:46:32.602Z,98127.72
2018-08-23T08:49:01.020Z,98123.63
2018-08-23T08:51:32.653Z,98119.64
2018-08-23T08:54:03.558Z,98118.47
2018-08-23T08:56:38.337Z,98121.42
2018-08-23T08:59:06.771Z,98119.83
2018-08-23T09:01:35.232Z,98117.36
2018-08-23T09:04:03.898Z,98115.38
2018-08-23T09:06:37.598Z,98120.80
2018-08-23T09:09:14.275Z,98111.00
2018-08-23T09:11:43.088Z,98112.13
2018-08-23T09:14:11.551Z,98108.86
2018-08-23T09:16:40.069Z,98116.55
2018-08-23T09:19:08.442Z,98110.13
2018-08-23T09:21:36.867Z,98112.55
2018-08-23T09:24:20.079Z,98116.34
2018-08-23T09:26:48.535Z,98132.92
2018-08-23T09:29:29.704Z,98124.37
2018-08-23T09:32:04.792Z,98115.86
2018-08-23T09:34:33.159Z,98114.39
2018-08-23T09:37:01.559Z,98113.08
2018-08-23T09:39:29.978Z,98113.88
2018-08-23T09:41:58.415Z,98111.94
2018-08-23T09:44:26.872Z,98124.41
2018-08-23T09:47:00.551Z,98119.23
2018-08-23T09:49:28.984Z,98107.16
2018-08-23T09:51:57.363Z,98114.20
2018-08-23T09:54:27.675Z,98105.31
2018-08-23T09:56:56.536Z,98099.64
2018-08-23T09:59:25.387Z,98093.73
2018-08-23T10:01:58.940Z,98101.31
2018-08-23T10:04:32.681Z,98093.56
2018-08-23T10:07:06.281Z,98078.73
2018-08-23T10:09:39.987Z,98072.81
2018-08-23T10:14:20.095Z,98064.31
2018-08-23T10:16:53.832Z,98053.50
2018-08-23T10:19:27.402Z,98057.83
2018-08-23T10:22:01.046Z,98051.48
2018-08-23T10:24:32.960Z,98050.92
2018-08-23T10:27:01.486Z,98053.51
2018-08-23T10:29:29.938Z,98049.38
2018-08-23T10:31:58.440Z,98051.31
2018-08-23T10:34:27.047Z,98045.17
2018-08-23T10:36:55.721Z,98034.73
2018-08-23T10:39:24.160Z,98034.50
2018-08-23T10:41:52.575Z,98038.83
2018-08-23T10:44:21.072Z,98027.30
2018-08-23T10:46:54.611Z,98019.20
2018-08-23T10:49:23.056Z,98020.81
2018-08-23T10:51:51.470Z,98019.69
2018-08-23T10:54:19.879Z,98013.49
2018-08-23T10:56:48.308Z,98014.63
2018-08-23T10:59:16.768Z,98012.72
2018-08-23T11:01:45.184Z,98004.12
2018-08-23T11:04:13.608Z,98012.16
2018-08-23T11:06:47.075Z,98016.23
2018-08-23T11:09:20.835Z,98004.63
2018-08-23T11:11:49.272Z,98010.69
2018-08-23T11:14:22.709Z,98012.19
2018-08-23T11:16:56.555Z,98006.16
2018-08-23T11:19:30.017Z,98002.53
2018-08-23T11:21:58.520Z,97996.81
2018-08-23T11:24:26.969Z,97999.03
2018-08-23T11:26:55.479Z,97987.23
2018-08-23T11:29:23.938Z,97976.23
2018-08-23T11:31:52.370Z,97975.56
2018-08-23T11:34:27.110Z,97969.11
2018-08-23T11:36:55.547Z,97960.03
2018-08-23T11:39:24.014Z,97960.47
2018-08-23T11:41:52.384Z,97951.03
2018-08-23T11:44:21.057Z,97943.91
2018-08-23T11:46:49.489Z,97942.67
2018-08-23T11:49:17.933Z,97936.39
2018-08-23T11:51:46.387Z,97928.42
2018-08-23T11:54:14.808Z,97923.86
2018-08-23T11:56:43.579Z,97926.48
2018-08-23T11:59:12.281Z,97917.89
2018-08-23T12:01:40.943Z,97911.03
2018-08-23T12:04:09.389Z,97916.35
2018-08-23T12:06:37.883Z,97921.39
2018-08-23T12:09:07.657Z,97919.12
2018-08-23T12:11:36.097Z,97915.70
2018-08-23T12:14:04.735Z,97910.08
2018-08-23T12:16:33.156Z,97909.27
2018-08-23T12:19:01.724Z,97902.24
2018-08-23T12:21:30.425Z,97896.27
2018-08-23T12:23:58.804Z,97902.80
2018-08-23T12:26:27.267Z,97894.28
2018-08-23T12:29:00.987Z,97892.59
2018-08-23T12:31:29.485Z,97892.97
2018-08-23T12:33:58.011Z,97883.59
2018-08-23T12:36:31.611Z,97888.20
2018-08-23T12:39:05.403Z,97889.27
2018-08-23T12:43:41.799Z,97880.20
2018-08-23T12:46:10.311Z,97874.02
2018-08-23T12:48:39.200Z,97870.87
2018-08-23T12:51:07.608Z,97870.50
2018-08-23T12:53:36.119Z,97862.16
2018-08-23T12:56:04.551Z,97860.47
2018-08-23T12:58:33.123Z,97854.42
2018-08-23T13:01:01.551Z,97852.03
2018-08-23T13:03:30.016Z,97849.53
2018-08-23T13:05:58.473Z,97839.61
2018-08-23T13:08:26.888Z,97838.99
2018-08-23T13:10:55.325Z,97829.70
2018-08-23T13:13:23.722Z,97824.42
2018-08-23T13:15:52.108Z,97824.98
2018-08-23T13:18:20.575Z,97816.60
2018-08-23T13:20:49.088Z,97804.41
2018-08-23T13:23:17.505Z,97806.05
2018-08-23T13:25:51.301Z,97807.71
2018-08-23T13:28:19.725Z,97795.70
2018-08-23T13:30:48.190Z,97791.83
2018-08-23T13:33:16.915Z,97786.70
2018-08-23T13:35:45.488Z,97790.56
2018-08-23T13:38:13.908Z,97787.83
2018-08-23T13:40:42.320Z,97786.09
2018-08-23T13:43:10.772Z,97774.86
2018-08-23T13:45:39.203Z,97774.47
2018-08-23T13:48:07.727Z,97773.88
2018-08-23T13:50:37.043Z,97773.38
2018-08-23T13:53:05.767Z,97771.42
2018-08-23T13:55:34.242Z,97762.34
2018-08-23T13:58:02.642Z,97762.03
2018-08-23T14:00:36.325Z,97759.14
2018-08-23T14:03:04.850Z,97759.28
2018-08-23T14:05:33.448Z,97751.80
2018-08-23T14:08:01.940Z,97748.97
2018-08-23T14:10:30.391Z,97742.25
2018-08-23T14:12:58.939Z,97739.45
2018-08-23T14:15:32.515Z,97737.16
2018-08-23T14:18:00.984Z,97733.64
2018-08-23T14:20:29.404Z,97735.34
2018-08-23T14:22:57.833Z,97735.55
2018-08-23T14:25:26.319Z,97732.80
2018-08-23T14:27:54.765Z,97736.87
2018-08-23T14:30:23.313Z,97727.67
2018-08-23T14:32:51.893Z,97719.89
2018-08-23T14:35:20.360Z,97717.80
2018-08-23T14:37:48.939Z,97718.86
2018-08-23T14:40:17.447Z,97717.21
2018-08-23T14:42:46.012Z,97721.58
2018-08-23T14:45:18.857Z,97718.59
2018-08-23T14:47:52.589Z,97716.27
2018-08-23T14:50:21.207Z,97719.41
2018-08-23T14:52:49.644Z,97707.80
2018-08-23T14:55:23.324Z,97711.52
2018-08-23T14:57:51.749Z,97714.66
2018-08-23T15:00:20.187Z,97712.59
2018-08-23T15:02:48.660Z,97711.39
2018-08-23T15:05:17.139Z,97705.84
2018-08-23T15:07:45.667Z,97708.06
2018-08-23T15:10:14.045Z,97700.25
2018-08-23T15:12:42.511Z,97696.45
2018-08-23T15:15:10.932Z,97691.81
2018-08-23T15:17:39.663Z,97696.82
2018-08-23T15:20:08.147Z,97696.60
2018-08-23T15:22:36.630Z,97693.72
2018-08-23T15:25:05.388Z,97694.45
2018-08-23T15:27:34.753Z,97693.70
2018-08-23T15:30:04.594Z,97694.76
2018-08-23T15:32:33.019Z,97687.08
2018-08-23T15:35:01.508Z,97682.97
2018-08-23T15:37:29.915Z,97671.59
2018-08-23T15:39:59.450Z,97671.00
2018-08-23T15:42:27.990Z,97672.30
2018-08-23T15:44:56.522Z,97670.80
2018-08-23T15:47:25.570Z,97671.30
2018-08-23T15:49:54.036Z,97672.82
2018-08-23T15:52:22.536Z,97666.02
2018-08-23T15:54:51.214Z,97657.11
2018-08-23T15:57:19.647Z,97651.45
2018-08-23T15:59:48.107Z,97651.42
2018-08-23T16:02:16.910Z,97650.69
2018-08-23T16:04:45.371Z,97661.97
2018-08-23T16:07:13.759Z,97662.03
2018-08-23T16:09:42.226Z,97659.34
2018-08-23T16:12:10.688Z,97657.66
2018-08-23T16:14:39.331Z,97665.66
2018-08-23T16:17:12.912Z,97662.30
2018-08-23T16:19:46.668Z,97665.41
2018-08-23T16:22:15.186Z,97663.48
2018-08-23T16:24:43.755Z,97661.15
2018-08-23T16:27:12.401Z,97661.11
2018-08-23T16:29:45.012Z,97663.95
2018-08-23T16:32:17.816Z,97655.63
2018-08-23T16:34:46.263Z,97656.81
2018-08-23T16:37:14.673Z,97660.05
2018-08-23T16:39:43.136Z,97662.19
2018-08-23T16:42:11.652Z,97662.22
2018-08-23T16:44:40.104Z,97660.87
2018-08-23T16:47:09.268Z,97659.39
2018-08-23T16:49:38.147Z,97656.28
2018-08-23T16:52:06.964Z,97659.11
2018-08-23T16:54:35.706Z,97659.17
2018-08-23T16:57:04.640Z,97652.87
2018-08-23T16:59:33.068Z,97656.84
2018-08-23T17:02:01.533Z,97655.27
2018-08-23T17:04:48.200Z,97651.08
2018-08-23T17:07:17.628Z,97649.86
2018-08-23T17:09:46.386Z,97653.07
2018-08-23T17:12:14.966Z,97651.44
2018-08-23T17:14:43.411Z,97651.16
2018-08-23T17:17:17.107Z,97648.00
2018-08-23T17:19:45.742Z,97645.96
2018-08-23T17:22:14.205Z,97644.39
2018-08-23T17:24:42.901Z,97654.55
2018-08-23T17:27:11.340Z,97651.20
2018-08-23T17:29:39.809Z,97642.84
2018-08-23T17:32:08.328Z,97646.73
2018-08-23T17:34:36.736Z,97650.11
2018-08-23T17:37:05.148Z,97644.41
2018-08-23T17:39:33.868Z,97646.20
2018-08-23T17:42:02.623Z,97654.06
2018-08-23T17:44:31.122Z,97649.78
2018-08-23T17:46:59.763Z,97654.47
2018-08-23T17:49:28.305Z,97659.92
2018-08-23T17:51:56.626Z,97661.98
2018-08-23T17:54:25.270Z,97669.13
2018-08-23T17:56:53.780Z,97672.52
2018-08-23T17:59:22.236Z,97673.55
2018-08-23T18:01:50.919Z,97682.81
2018-08-23T18:04:19.564Z,97680.59
2018-08-23T18:06:47.990Z,97688.49
2018-08-23T18:09:16.428Z,97694.52
2018-08-23T18:11:45.296Z,97696.15
2018-08-23T18:14:14.206Z,97699.56
2018-08-23T18:16:47.786Z,97698.43
2018-08-23T18:19:16.339Z,97703.50
2018-08-23T18:21:45.007Z,97701.64
2018-08-23T18:24:13.470Z,97708.34
2018-08-23T18:26:41.963Z,97709.38
2018-08-23T18:29:10.626Z,97715.67
2018-08-23T18:31:39.246Z,97717.70
2018-08-23T18:34:07.979Z,97717.17
2018-08-23T18:36:36.395Z,97719.61
2018-08-23T18:39:07.076Z,97722.48
2018-08-23T18:41:35.545Z,97727.55
2018-08-23T18:44:04.033Z,97727.97
2018-08-23T18:46:32.769Z,97731.93
2018-08-23T18:49:01.428Z,97735.95
2018-08-23T18:51:31.135Z,97731.53
2018-08-23T18:54:00.443Z,97735.65
2018-08-23T18:56:30.307Z,97739.30
2018-08-23T18:58:58.796Z,97740.02
2018-08-23T19:01:27.237Z,97742.20
2018-08-23T19:03:55.640Z,97742.89
2018-08-23T19:06:29.352Z,97746.30
2018-08-23T19:08:57.789Z,97755.59
2018-08-23T19:11:26.279Z,97762.87
2018-08-23T19:13:54.804Z,97784.96
2018-08-23T19:16:28.548Z,97797.73
2018-08-23T19:18:57.117Z,97804.83
2018-08-23T19:21:25.812Z,97818.86
2018-08-23T19:23:54.327Z,97805.72
2018-08-23T19:26:22.750Z,97815.01
2018-08-23T19:28:51.186Z,97830.84
2018-08-23T19:31:19.738Z,97833.09
2018-08-23T19:33:48.083Z,97822.29
2018-08-23T19:36:17.095Z,97830.13
2018-08-23T19:38:45.569Z,97834.91
2018-08-23T19:41:14.003Z,97826.41
2018-08-23T19:43:42.425Z,97845.80
2018-08-23T19:46:16.079Z,97835.30
2018-08-23T19:48:45.736Z,97839.66
2018-08-23T19:51:14.211Z,97848.48
2018-08-23T19:53:42.688Z,97834.16
2018-08-23T19:56:11.150Z,97828.16
2018-08-23T19:58:39.554Z,97832.68
2018-08-23T20:01:07.979Z,97842.85
2018-08-23T20:03:36.424Z,97844.30
2018-08-23T20:06:04.865Z,97850.86
2018-08-23T20:08:33.431Z,97861.55
2018-08-23T20:11:02.017Z,97857.45
2018-08-23T20:13:30.501Z,97863.56
2018-08-23T20:15:58.907Z,97869.26
2018-08-23T20:18:27.860Z,97876.59
2018-08-23T20:20:56.664Z,97885.79
2018-08-23T20:23:25.071Z,97894.04
2018-08-23T20:25:53.544Z,97888.45
2018-08-23T20:28:22.188Z,97909.27
2018-08-23T20:30:50.679Z,97918.48
2018-08-23T20:33:19.492Z,97932.17
2018-08-23T20:35:48.274Z,97900.27
2018-08-23T20:38:16.721Z,97941.73
2018-08-23T20:40:45.355Z,97940.44
2018-08-23T20:43:13.803Z,97945.94
2018-08-23T20:45:42.917Z,97949.33
2018-08-23T20:48:11.321Z,97959.37
2018-08-23T20:50:40.624Z,97941.30
2018-08-23T20:53:09.057Z,97953.14
2018-08-23T20:55:37.480Z,97934.28
2018-08-23T20:58:06.014Z,97945.02
2018-08-23T21:00:34.397Z,97946.78
2018-08-23T21:03:02.946Z,97924.75
2018-08-23T21:05:31.512Z,97919.22
2018-08-23T21:07:59.994Z,97921.88
2018-08-23T21:10:28.400Z,97935.20
2018-08-23T21:12:57.086Z,97937.79
2018-08-23T21:15:25.572Z,97953.72
2018-08-23T21:17:54.347Z,97962.84
2018-08-23T21:20:22.800Z,97967.97
2018-08-23T21:22:51.257Z,97965.59
2018-08-23T21:25:19.688Z,97964.52
2018-08-23T21:27:48.128Z,97968.69
2018-08-23T21:30:16.583Z,97962.33
2018-08-23T21:32:45.037Z,97955.84
2018-08-23T21:35:13.480Z,97942.41
2018-08-23T21:37:42.200Z,97938.62
2018-08-23T21:40:10.647Z,97928.45
2018-08-23T21:42:39.154Z,97935.01
2018-08-23T21:45:08.207Z,97940.08
2018-08-23T21:47:36.706Z,97950.86
2018-08-23T21:50:05.233Z,97953.59
2018-08-23T21:52:33.788Z,97960.13
2018-08-23T21:55:02.432Z,97952.19
2018-08-23T21:57:31.311Z,97953.30
2018-08-23T21:59:59.700Z,97962.12
2018-08-23T22:02:28.146Z,97965.91
2018-08-23T22:04:57.965Z,97968.14
2018-08-23T22:07:26.422Z,97956.89
2018-08-23T22:09:55.489Z,97935.06
2018-08-23T22:12:25.014Z,97919.63
2018-08-23T22:14:54.610Z,97909.05
2018-08-23T22:17:23.601Z,97904.70
2018-08-23T22:19:52.891Z,97887.06
2018-08-23T22:22:21.308Z,97897.29
2018-08-23T22:24:50.051Z,97887.20
2018-08-23T22:27:18.467Z,97884.81
2018-08-23T22:29:46.926Z,97880.44
2018-08-23T22:32:15.468Z,97883.58
2018-08-23T22:34:44.107Z,97880.91
2018-08-23T22:37:12.559Z,97882.35
2018-08-23T22:39:41.138Z,97886.27
2018-08-23T22:42:09.667Z,97879.42
2018-08-23T22:44:38.114Z,97860.28
2018-08-23T22:47:06.911Z,97878.62
2018-08-23T22:49:35.382Z,97878.42
2018-08-23T22:52:03.982Z,97875.03
2018-08-23T22:54:32.436Z,97868.17
2018-08-23T22:57:01.186Z,97867.81
2018-08-23T22:59:29.671Z,97858.96
2018-08-23T23:01:58.129Z,97868.23
2018-08-23T23:04:27.046Z,97873.03
2018-08-23T23:06:56.143Z,97866.08
2018-08-23T23:09:24.605Z,97864.96
2018-08-23T23:11:53.268Z,97857.70
2018-08-23T23:14:21.726Z,97858.53
2018-08-23T23:16:53.799Z,97861.84
2018-08-23T23:19:23.111Z,97863.12
2018-08-23T23:21:51.693Z,97856.78
2018-08-23T23:24:25.204Z,97853.74
2018-08-23T23:26:53.995Z,97856.17
2018-08-23T23:29:22.419Z,97859.16
2018-08-23T23:31:50.915Z,97858.52
2018-08-23T23:34:19.540Z,97863.95
2018-08-23T23:36:47.964Z,97861.52
2018-08-23T23:39:16.401Z,97852.53
2018-08-23T23:41:44.858Z,97856.45
2018-08-23T23:44:13.359Z,97860.52
2018-08-23T23:46:41.804Z,97858.25
2018-08-23T23:49:10.248Z,97858.47
2018-08-23T23:51:38.701Z,97855.72
2018-08-23T23:54:07.569Z,97855.58
2018-08-23T23:56:35.998Z,97862.13
2018-08-23T23:59:05.085Z,97867.68
